sensor_id;sensor_type;location;lat;lon;timestamp;pressure;altitude;pressure_sealevel;temperature;humidity
13765;BME280;6953;48.810;9.204;2023-08-01T01:26:22;97576.69;;;19.01;100.00
13765;BME280;6953;48.810;9.204;2023-08-01T01:28:49;97418.97;;;18.10;100.00
13765;BME280;6953;48.810;9.204;2023-08-01T01:31:16;97620.81;;;19.20;100.00
13765;BME280;6953;48.810;9.204;2023-08-01T01:33:41;97591.06;;;19.16;100.00
13765;BME280;6953;48.810;9.204;2023-08-01T01:36:07;97343.47;;;17.79;100.00
13765;BME280;6953;48.810;9.204;2023-08-01T01:38:32;97574.78;;;19.19;100.00
13765;BME280;6953;48.810;9.204;2023-08-01T05:26:47;97360.16;;;20.98;94.73
13765;BME280;6953;48.810;9.204;2023-08-01T05:29:12;97400.81;;;21.23;95.37
13765;BME280;6953;48.810;9.204;2023-08-01T05:31:38;97265.69;;;20.40;95.48
13765;BME280;6953;48.810;9.204;2023-08-01T05:34:03;97400.16;;;21.21;95.67
13765;BME280;6953;48.810;9.204;2023-08-01T05:36:28;97205.84;;;20.06;95.91
13765;BME280;6953;48.810;9.204;2023-08-01T05:38:54;97401.78;;;21.30;96.45
13765;BME280;6953;48.810;9.204;2023-08-01T05:41:19;97407.81;;;21.24;95.75
13765;BME280;6953;48.810;9.204;2023-08-01T05:43:47;97443.84;;;21.50;95.40
13765;BME280;6953;48.810;9.204;2023-08-01T05:46:13;97376.84;;;21.37;94.96
13765;BME280;6953;48.810;9.204;2023-08-01T05:48:38;97215.84;;;20.49;94.90
13765;BME280;6953;48.810;9.204;2023-08-01T05:51:03;97411.59;;;21.60;95.08
13765;BME280;6953;48.810;9.204;2023-08-01T05:53:28;97376.97;;;21.44;93.82
13765;BME280;6953;48.810;9.204;2023-08-01T05:55:54;97410.69;;;21.67;93.61
13765;BME280;6953;48.810;9.204;2023-08-01T05:58:20;97404.34;;;21.68;93.43
13765;BME280;6953;48.810;9.204;2023-08-01T06:00:45;97408.47;;;21.71;93.56
13765;BME280;6953;48.810;9.204;2023-08-01T06:03:10;97201.91;;;20.47;92.52
13765;BME280;6953;48.810;9.204;2023-08-01T06:05:36;97169.19;;;20.30;92.10
13765;BME280;6953;48.810;9.204;2023-08-01T06:08:03;97451.34;;;21.92;90.38
13765;BME280;6953;48.810;9.204;2023-08-01T06:10:28;97198.91;;;20.64;87.78
13765;BME280;6953;48.810;9.204;2023-08-01T06:12:54;97424.31;;;22.09;86.48
13765;BME280;6953;48.810;9.204;2023-08-01T06:15:19;97414.25;;;21.97;86.21
13765;BME280;6953;48.810;9.204;2023-08-01T06:17:44;97204.63;;;20.84;85.39
13765;BME280;6953;48.810;9.204;2023-08-01T06:20:10;97421.72;;;22.15;83.48
13765;BME280;6953;48.810;9.204;2023-08-01T06:22:36;97421.38;;;22.18;81.86
13765;BME280;6953;48.810;9.204;2023-08-01T06:25:01;97383.19;;;21.96;81.61
13765;BME280;6953;48.810;9.204;2023-08-01T06:27:26;97441.34;;;22.22;81.08
13765;BME280;6953;48.810;9.204;2023-08-01T06:29:52;97349.38;;;21.37;82.80
13765;BME280;6953;48.810;9.204;2023-08-01T06:32:17;97440.72;;;21.16;86.79
13765;BME280;6953;48.810;9.204;2023-08-01T06:34:42;97452.34;;;20.55;90.87
13765;BME280;6953;48.810;9.204;2023-08-01T06:37:07;97220.44;;;18.70;95.82
13765;BME280;6953;48.810;9.204;2023-08-01T06:39:33;97458.81;;;19.82;99.33
13765;BME280;6953;48.810;9.204;2023-08-01T06:41:58;97469.78;;;19.55;100.00
13765;BME280;6953;48.810;9.204;2023-08-01T06:44:23;97458.28;;;19.39;100.00
13765;BME280;6953;48.810;9.204;2023-08-01T06:46:49;97289.44;;;18.22;100.00
13765;BME280;6953;48.810;9.204;2023-08-01T06:49:14;97469.91;;;19.14;100.00
13765;BME280;6953;48.810;9.204;2023-08-01T06:51:39;97465.84;;;19.02;100.00
13765;BME280;6953;48.810;9.204;2023-08-01T06:54:07;97195.16;;;17.27;100.00
13765;BME280;6953;48.810;9.204;2023-08-01T06:56:32;97462.97;;;18.87;100.00
13765;BME280;6953;48.810;9.204;2023-08-01T06:58:57;97436.56;;;18.86;100.00
13765;BME280;6953;48.810;9.204;2023-08-01T07:01:23;97429.09;;;18.89;100.00
13765;BME280;6953;48.810;9.204;2023-08-01T07:03:48;97289.28;;;18.23;100.00
13765;BME280;6953;48.810;9.204;2023-08-01T07:06:16;97425.69;;;19.21;100.00
13765;BME280;6953;48.810;9.204;2023-08-01T07:08:41;97429.88;;;19.23;100.00
13765;BME280;6953;48.810;9.204;2023-08-01T07:11:06;97434.63;;;19.12;100.00
13765;BME280;6953;48.810;9.204;2023-08-01T07:13:31;97440.25;;;19.01;100.00
13765;BME280;6953;48.810;9.204;2023-08-01T07:15:57;97434.44;;;18.97;100.00
13765;BME280;6953;48.810;9.204;2023-08-01T07:18:22;97166.31;;;17.24;100.00
13765;BME280;6953;48.810;9.204;2023-08-01T07:20:48;97416.66;;;18.98;100.00
13765;BME280;6953;48.810;9.204;2023-08-01T07:23:13;97375.25;;;18.72;100.00
13765;BME280;6953;48.810;9.204;2023-08-01T07:25:38;97197.88;;;17.35;100.00
13765;BME280;6953;48.810;9.204;2023-08-01T07:28:04;97165.09;;;17.11;100.00
13765;BME280;6953;48.810;9.204;2023-08-01T07:30:29;97335.25;;;17.90;100.00
13765;BME280;6953;48.810;9.204;2023-08-01T07:32:54;97236.50;;;17.12;100.00
13765;BME280;6953;48.810;9.204;2023-08-01T07:35:20;97376.09;;;17.97;100.00
13765;BME280;6953;48.810;9.204;2023-08-01T07:37:45;97207.38;;;16.95;100.00
13765;BME280;6953;48.810;9.204;2023-08-01T07:40:10;97450.81;;;18.36;100.00
13765;BME280;6953;48.810;9.204;2023-08-01T07:42:36;97459.72;;;18.27;100.00
13765;BME280;6953;48.810;9.204;2023-08-01T07:45:01;97447.31;;;18.27;100.00
13765;BME280;6953;48.810;9.204;2023-08-01T07:47:27;97399.91;;;18.15;100.00
13765;BME280;6953;48.810;9.204;2023-08-01T07:49:52;97228.72;;;17.11;100.00
13765;BME280;6953;48.810;9.204;2023-08-01T07:52:18;97374.75;;;17.93;100.00
13765;BME280;6953;48.810;9.204;2023-08-01T07:54:43;97457.19;;;18.43;100.00
13765;BME280;6953;48.810;9.204;2023-08-01T07:57:08;97423.13;;;18.13;100.00
13765;BME280;6953;48.810;9.204;2023-08-01T07:59:33;97425.88;;;18.29;100.00
13765;BME280;6953;48.810;9.204;2023-08-01T08:01:59;97294.00;;;17.63;100.00
13765;BME280;6953;48.810;9.204;2023-08-01T08:04:24;97389.91;;;18.34;100.00
13765;BME280;6953;48.810;9.204;2023-08-01T08:06:50;97448.19;;;18.85;100.00
13765;BME280;6953;48.810;9.204;2023-08-01T08:09:17;97419.31;;;18.90;100.00
13765;BME280;6953;48.810;9.204;2023-08-01T08:11:42;97424.56;;;19.23;100.00
13765;BME280;6953;48.810;9.204;2023-08-01T08:14:07;97443.50;;;19.52;100.00
13765;BME280;6953;48.810;9.204;2023-08-01T08:16:33;97456.66;;;19.54;100.00
13765;BME280;6953;48.810;9.204;2023-08-01T08:18:59;97452.97;;;19.47;100.00
13765;BME280;6953;48.810;9.204;2023-08-01T08:21:24;97223.84;;;18.06;100.00
13765;BME280;6953;48.810;9.204;2023-08-01T08:23:49;97221.16;;;17.98;100.00
13765;BME280;6953;48.810;9.204;2023-08-01T08:26:15;97456.47;;;19.39;100.00
13765;BME280;6953;48.810;9.204;2023-08-01T08:28:40;97443.69;;;19.51;100.00
13765;BME280;6953;48.810;9.204;2023-08-01T08:31:07;97437.50;;;19.50;100.00
13765;BME280;6953;48.810;9.204;2023-08-01T08:33:32;97271.91;;;18.37;100.00
13765;BME280;6953;48.810;9.204;2023-08-01T08:35:58;97451.16;;;19.39;100.00
13765;BME280;6953;48.810;9.204;2023-08-01T08:38:23;97439.50;;;19.32;100.00
13765;BME280;6953;48.810;9.204;2023-08-01T08:41:09;97457.16;;;19.57;100.00
13765;BME280;6953;48.810;9.204;2023-08-01T08:43:35;97210.78;;;18.29;100.00
13765;BME280;6953;48.810;9.204;2023-08-01T08:46:04;97458.00;;;19.97;100.00
13765;BME280;6953;48.810;9.204;2023-08-01T08:48:31;97445.25;;;20.31;100.00
13765;BME280;6953;48.810;9.204;2023-08-01T08:50:58;97458.66;;;20.54;100.00
13765;BME280;6953;48.810;9.204;2023-08-01T08:53:24;97451.78;;;20.67;100.00
13765;BME280;6953;48.810;9.204;2023-08-01T08:55:50;97460.97;;;20.65;100.00
13765;BME280;6953;48.810;9.204;2023-08-01T08:58:16;97327.13;;;20.08;100.00
13765;BME280;6953;48.810;9.204;2023-08-01T09:00:43;97456.72;;;21.69;100.00
13765;BME280;6953;48.810;9.204;2023-08-01T09:03:08;97327.78;;;21.61;100.00
13765;BME280;6953;48.810;9.204;2023-08-01T09:05:48;97456.97;;;22.62;100.00
13765;BME280;6953;48.810;9.204;2023-08-01T09:08:20;97463.97;;;22.78;98.71
13765;BME280;6953;48.810;9.204;2023-08-01T09:10:47;97404.88;;;22.44;99.32
13765;BME280;6953;48.810;9.204;2023-08-01T09:13:13;97445.53;;;22.68;97.77
13765;BME280;6953;48.810;9.204;2023-08-01T09:15:40;97458.16;;;22.74;98.26
13765;BME280;6953;48.810;9.204;2023-08-01T09:18:07;97195.34;;;20.94;98.12
13765;BME280;6953;48.810;9.204;2023-08-01T09:20:53;97471.56;;;22.08;100.00
13765;BME280;6953;48.810;9.204;2023-08-01T09:23:18;97408.84;;;21.45;100.00
13765;BME280;6953;48.810;9.204;2023-08-01T09:25:44;97420.97;;;21.48;100.00
13765;BME280;6953;48.810;9.204;2023-08-01T09:28:20;97457.84;;;21.22;100.00
13765;BME280;6953;48.810;9.204;2023-08-01T09:30:50;97466.31;;;21.03;100.00
13765;BME280;6953;48.810;9.204;2023-08-01T09:33:16;97458.09;;;20.74;100.00
13765;BME280;6953;48.810;9.204;2023-08-01T09:35:42;97355.13;;;19.96;100.00
13765;BME280;6953;48.810;9.204;2023-08-01T09:38:10;97370.09;;;20.05;100.00
13765;BME280;6953;48.810;9.204;2023-08-01T09:40:39;97406.44;;;20.37;100.00
13765;BME280;6953;48.810;9.204;2023-08-01T09:43:05;97476.38;;;20.93;100.00
13765;BME280;6953;48.810;9.204;2023-08-01T09:45:30;97482.66;;;21.00;100.00
13765;BME280;6953;48.810;9.204;2023-08-01T09:47:56;97476.03;;;21.26;100.00
13765;BME280;6953;48.810;9.204;2023-08-01T09:50:22;97435.72;;;21.13;100.00
13765;BME280;6953;48.810;9.204;2023-08-01T09:52:48;97411.59;;;21.07;100.00
13765;BME280;6953;48.810;9.204;2023-08-01T09:55:26;97421.94;;;21.32;100.00
13765;BME280;6953;48.810;9.204;2023-08-01T09:57:57;97311.69;;;20.95;100.00
13765;BME280;6953;48.810;9.204;2023-08-01T10:00:26;97494.03;;;22.36;100.00
13765;BME280;6953;48.810;9.204;2023-08-01T10:02:52;97259.16;;;21.69;100.00
13765;BME280;6953;48.810;9.204;2023-08-01T10:05:19;97479.25;;;23.69;96.34
13765;BME280;6953;48.810;9.204;2023-08-01T10:07:45;97475.25;;;24.00;92.96
13765;BME280;6953;48.810;9.204;2023-08-01T10:10:12;97280.78;;;23.09;91.21
13765;BME280;6953;48.810;9.204;2023-08-01T10:12:39;97529.25;;;24.45;89.23
13765;BME280;6953;48.810;9.204;2023-08-01T10:15:08;97506.50;;;24.62;87.74
13765;BME280;6953;48.810;9.204;2023-08-01T10:17:34;97497.25;;;24.71;88.22
13765;BME280;6953;48.810;9.204;2023-08-01T10:20:00;97443.72;;;24.29;87.39
13765;BME280;6953;48.810;9.204;2023-08-01T10:22:27;97452.41;;;24.31;87.30
13765;BME280;6953;48.810;9.204;2023-08-01T10:24:53;97480.97;;;24.45;86.41
13765;BME280;6953;48.810;9.204;2023-08-01T10:27:20;97442.59;;;24.45;86.60
13765;BME280;6953;48.810;9.204;2023-08-01T10:29:56;97440.78;;;24.86;84.91
13765;BME280;6953;48.810;9.204;2023-08-01T10:32:31;97451.16;;;25.02;84.19
13765;BME280;6953;48.810;9.204;2023-08-01T10:34:56;97458.84;;;24.64;85.01
13765;BME280;6953;48.810;9.204;2023-08-01T10:37:22;97501.97;;;24.69;86.31
13765;BME280;6953;48.810;9.204;2023-08-01T10:39:56;97471.41;;;24.64;86.23
13765;BME280;6953;48.810;9.204;2023-08-01T10:42:22;97518.31;;;24.74;84.76
13765;BME280;6953;48.810;9.204;2023-08-01T10:44:47;97510.94;;;24.83;85.66
13765;BME280;6953;48.810;9.204;2023-08-01T10:47:12;97304.13;;;23.70;83.91
13765;BME280;6953;48.810;9.204;2023-08-01T10:49:44;97338.63;;;23.58;85.17
13765;BME280;6953;48.810;9.204;2023-08-01T10:52:26;97485.03;;;24.62;84.21
13765;BME280;6953;48.810;9.204;2023-08-01T10:54:58;97548.16;;;24.58;82.13
13765;BME280;6953;48.810;9.204;2023-08-01T10:57:27;97510.59;;;26.05;73.68
13765;BME280;6953;48.810;9.204;2023-08-01T10:59:55;97533.00;;;26.44;66.85
13765;BME280;6953;48.810;9.204;2023-08-01T11:02:22;97530.13;;;27.35;60.98
13765;BME280;6953;48.810;9.204;2023-08-01T11:05:03;97476.81;;;30.73;45.56
13765;BME280;6953;48.810;9.204;2023-08-01T11:07:29;97526.31;;;33.57;41.06
13765;BME280;6953;48.810;9.204;2023-08-01T11:12:32;97520.31;;;35.23;33.67
13765;BME280;6953;48.810;9.204;2023-08-01T11:15:01;97552.41;;;36.19;29.07
13765;BME280;6953;48.810;9.204;2023-08-01T11:17:27;97552.50;;;36.48;29.62
13765;BME280;6953;48.810;9.204;2023-08-01T11:20:00;97557.31;;;37.71;26.79
13765;BME280;6953;48.810;9.204;2023-08-01T11:22:26;97562.84;;;38.29;26.74
13765;BME280;6953;48.810;9.204;2023-08-01T11:24:51;97433.09;;;37.95;25.28
13765;BME280;6953;48.810;9.204;2023-08-01T11:27:16;97573.81;;;39.63;23.64
13765;BME280;6953;48.810;9.204;2023-08-01T11:29:42;97559.59;;;40.02;23.29
13765;BME280;6953;48.810;9.204;2023-08-01T11:32:07;97566.72;;;40.64;22.43
13765;BME280;6953;48.810;9.204;2023-08-01T11:34:39;97571.78;;;41.39;20.24
13765;BME280;6953;48.810;9.204;2023-08-01T11:37:06;97594.94;;;41.24;21.82
13765;BME280;6953;48.810;9.204;2023-08-01T11:39:32;97599.47;;;40.23;21.68
13765;BME280;6953;48.810;9.204;2023-08-01T11:41:57;97578.53;;;40.64;21.65
13765;BME280;6953;48.810;9.204;2023-08-01T11:44:24;97585.91;;;40.87;20.65
13765;BME280;6953;48.810;9.204;2023-08-01T11:46:49;97588.50;;;37.90;23.82
13765;BME280;6953;48.810;9.204;2023-08-01T11:49:14;97467.16;;;35.35;26.16
13765;BME280;6953;48.810;9.204;2023-08-01T11:51:41;97496.94;;;33.59;30.14
13765;BME280;6953;48.810;9.204;2023-08-01T11:54:07;97559.59;;;31.99;34.48
13765;BME280;6953;48.810;9.204;2023-08-01T11:56:34;97572.22;;;30.63;35.30
13765;BME280;6953;48.810;9.204;2023-08-01T11:59:16;97556.59;;;29.23;38.48
13765;BME280;6953;48.810;9.204;2023-08-01T12:01:44;97577.00;;;28.77;39.73
13765;BME280;6953;48.810;9.204;2023-08-01T12:04:09;97561.59;;;28.29;41.81
13765;BME280;6953;48.810;9.204;2023-08-01T12:06:35;97582.53;;;28.58;42.06
13765;BME280;6953;48.810;9.204;2023-08-01T12:09:09;97592.59;;;28.99;41.08
13765;BME280;6953;48.810;9.204;2023-08-01T12:11:35;97584.66;;;29.65;40.34
13765;BME280;6953;48.810;9.204;2023-08-01T12:14:05;97480.09;;;30.97;34.95
13765;BME280;6953;48.810;9.204;2023-08-01T12:16:32;97542.06;;;30.82;35.48
13765;BME280;6953;48.810;9.204;2023-08-01T12:18:57;97587.91;;;30.84;34.93
13765;BME280;6953;48.810;9.204;2023-08-01T12:21:23;97606.91;;;29.96;36.69
13765;BME280;6953;48.810;9.204;2023-08-01T12:23:48;97577.84;;;29.02;38.40
13765;BME280;6953;48.810;9.204;2023-08-01T12:26:13;97396.44;;;27.34;40.13
13765;BME280;6953;48.810;9.204;2023-08-01T12:28:39;97563.91;;;31.22;34.44
13765;BME280;6953;48.810;9.204;2023-08-01T12:31:04;97611.25;;;34.44;28.96
13765;BME280;6953;48.810;9.204;2023-08-01T12:33:30;97596.34;;;34.52;27.94
13765;BME280;6953;48.810;9.204;2023-08-01T12:35:56;97599.22;;;32.84;29.74
13765;BME280;6953;48.810;9.204;2023-08-01T12:38:21;97604.72;;;33.22;28.89
13765;BME280;6953;48.810;9.204;2023-08-01T12:40:46;97610.22;;;33.10;28.80
13765;BME280;6953;48.810;9.204;2023-08-01T12:43:12;97606.19;;;32.08;29.60
13765;BME280;6953;48.810;9.204;2023-08-01T12:45:38;97605.59;;;34.24;27.32
13765;BME280;6953;48.810;9.204;2023-08-01T12:48:03;97431.41;;;35.32;24.89
13765;BME280;6953;48.810;9.204;2023-08-01T12:50:29;97582.81;;;38.35;23.29
13765;BME280;6953;48.810;9.204;2023-08-01T12:52:54;97623.06;;;38.92;21.47
13765;BME280;6953;48.810;9.204;2023-08-01T12:55:19;97609.47;;;38.72;22.22
13765;BME280;6953;48.810;9.204;2023-08-01T12:57:45;97468.13;;;38.75;20.01
13765;BME280;6953;48.810;9.204;2023-08-01T13:00:10;97626.72;;;38.78;21.15
13765;BME280;6953;48.810;9.204;2023-08-01T13:02:36;97484.38;;;36.92;22.96
13765;BME280;6953;48.810;9.204;2023-08-01T13:05:03;97596.09;;;36.04;24.76
13765;BME280;6953;48.810;9.204;2023-08-01T13:07:28;97460.06;;;34.20;25.33
13765;BME280;6953;48.810;9.204;2023-08-01T13:09:57;97612.31;;;33.36;26.45
13765;BME280;6953;48.810;9.204;2023-08-01T13:12:22;97601.47;;;31.64;30.16
13765;BME280;6953;48.810;9.204;2023-08-01T13:14:47;97623.59;;;30.70;32.17
13765;BME280;6953;48.810;9.204;2023-08-01T13:17:12;97615.63;;;30.45;32.88
13765;BME280;6953;48.810;9.204;2023-08-01T13:19:38;97458.06;;;30.82;30.45
13765;BME280;6953;48.810;9.204;2023-08-01T13:22:03;97644.22;;;33.79;27.42
13765;BME280;6953;48.810;9.204;2023-08-01T13:24:29;97603.81;;;34.93;25.55
13765;BME280;6953;48.810;9.204;2023-08-01T13:26:54;97624.53;;;36.08;24.62
13765;BME280;6953;48.810;9.204;2023-08-01T13:29:19;97624.72;;;36.52;23.20
13765;BME280;6953;48.810;9.204;2023-08-01T13:31:45;97591.09;;;36.67;22.58
13765;BME280;6953;48.810;9.204;2023-08-01T13:34:10;97607.06;;;38.03;20.69
13765;BME280;6953;48.810;9.204;2023-08-01T13:36:35;97618.75;;;38.81;20.95
13765;BME280;6953;48.810;9.204;2023-08-01T13:39:01;97627.84;;;39.15;20.34
13765;BME280;6953;48.810;9.204;2023-08-01T13:41:26;97453.50;;;37.69;19.63
13765;BME280;6953;48.810;9.204;2023-08-01T13:43:52;97467.31;;;37.50;20.18
13765;BME280;6953;48.810;9.204;2023-08-01T13:46:18;97619.34;;;38.15;20.90
13765;BME280;6953;48.810;9.204;2023-08-01T13:48:45;97462.78;;;37.83;20.26
13765;BME280;6953;48.810;9.204;2023-08-01T13:51:11;97573.63;;;38.54;20.33
13765;BME280;6953;48.810;9.204;2023-08-01T13:53:36;97615.25;;;39.04;20.10
13765;BME280;6953;48.810;9.204;2023-08-01T13:56:08;97621.06;;;38.06;20.59
13765;BME280;6953;48.810;9.204;2023-08-01T13:58:34;97624.78;;;37.02;21.95
13765;BME280;6953;48.810;9.204;2023-08-01T14:01:08;97606.13;;;36.84;22.31
13765;BME280;6953;48.810;9.204;2023-08-01T14:03:34;97625.00;;;36.00;22.82
13765;BME280;6953;48.810;9.204;2023-08-01T14:06:10;97582.06;;;36.51;22.23
13765;BME280;6953;48.810;9.204;2023-08-01T14:08:37;97597.66;;;37.31;21.79
13765;BME280;6953;48.810;9.204;2023-08-01T14:11:04;97611.25;;;37.75;21.24
13765;BME280;6953;48.810;9.204;2023-08-01T14:13:30;97588.63;;;37.45;21.33
13765;BME280;6953;48.810;9.204;2023-08-01T14:15:55;97611.66;;;37.19;21.66
13765;BME280;6953;48.810;9.204;2023-08-01T14:18:20;97540.19;;;35.55;23.23
13765;BME280;6953;48.810;9.204;2023-08-01T14:20:46;97600.41;;;34.76;24.66
13765;BME280;6953;48.810;9.204;2023-08-01T14:23:11;97558.38;;;33.71;25.63
13765;BME280;6953;48.810;9.204;2023-08-01T14:25:36;97581.69;;;34.58;24.35
13765;BME280;6953;48.810;9.204;2023-08-01T14:28:02;97594.97;;;35.48;23.46
13765;BME280;6953;48.810;9.204;2023-08-01T14:30:27;97597.19;;;34.57;24.73
13765;BME280;6953;48.810;9.204;2023-08-01T14:33:07;97584.59;;;33.06;27.21
13765;BME280;6953;48.810;9.204;2023-08-01T14:35:36;97512.94;;;31.75;28.85
13765;BME280;6953;48.810;9.204;2023-08-01T14:38:02;97571.88;;;31.40;30.00
13765;BME280;6953;48.810;9.204;2023-08-01T14:40:29;97540.06;;;30.67;29.98
13765;BME280;6953;48.810;9.204;2023-08-01T14:42:55;97478.16;;;30.18;30.45
13765;BME280;6953;48.810;9.204;2023-08-01T14:45:21;97564.69;;;30.24;30.73
13765;BME280;6953;48.810;9.204;2023-08-01T14:47:46;97590.31;;;30.22;31.29
13765;BME280;6953;48.810;9.204;2023-08-01T14:50:13;97499.97;;;29.64;31.66
13765;BME280;6953;48.810;9.204;2023-08-01T14:52:39;97558.78;;;30.16;31.52
13765;BME280;6953;48.810;9.204;2023-08-01T14:55:05;97591.38;;;30.21;30.74
13765;BME280;6953;48.810;9.204;2023-08-01T14:57:31;97573.53;;;30.02;31.43
13765;BME280;6953;48.810;9.204;2023-08-01T14:59:56;97613.19;;;30.26;32.13
13765;BME280;6953;48.810;9.204;2023-08-01T15:02:22;97606.03;;;30.02;30.22
13765;BME280;6953;48.810;9.204;2023-08-01T15:04:52;97611.09;;;29.45;30.48
13765;BME280;6953;48.810;9.204;2023-08-01T15:07:18;97638.63;;;29.11;32.03
13765;BME280;6953;48.810;9.204;2023-08-01T15:09:44;97415.19;;;27.53;31.69
13765;BME280;6953;48.810;9.204;2023-08-01T15:12:10;97618.97;;;28.49;33.15
13765;BME280;6953;48.810;9.204;2023-08-01T15:14:36;97638.31;;;28.46;33.75
13765;BME280;6953;48.810;9.204;2023-08-01T15:17:02;97608.44;;;28.41;34.09
13765;BME280;6953;48.810;9.204;2023-08-01T15:19:28;97610.34;;;28.34;34.64
13765;BME280;6953;48.810;9.204;2023-08-01T15:21:53;97492.81;;;27.32;35.21
13765;BME280;6953;48.810;9.204;2023-08-01T15:24:18;97621.91;;;28.10;34.18
13765;BME280;6953;48.810;9.204;2023-08-01T15:26:44;97625.78;;;28.14;34.49
13765;BME280;6953;48.810;9.204;2023-08-01T15:29:09;97588.00;;;27.83;34.70
13765;BME280;6953;48.810;9.204;2023-08-01T15:31:35;97619.44;;;28.02;35.41
13765;BME280;6953;48.810;9.204;2023-08-01T15:34:00;97620.56;;;27.88;35.00
13765;BME280;6953;48.810;9.204;2023-08-01T15:36:28;97632.56;;;27.92;36.39
13765;BME280;6953;48.810;9.204;2023-08-01T15:38:53;97425.97;;;26.53;36.07
13765;BME280;6953;48.810;9.204;2023-08-01T15:41:20;97619.63;;;27.56;37.57
13765;BME280;6953;48.810;9.204;2023-08-01T15:43:46;97453.50;;;26.48;38.62
13765;BME280;6953;48.810;9.204;2023-08-01T15:46:11;97631.00;;;27.58;38.25
13765;BME280;6953;48.810;9.204;2023-08-01T15:48:37;97556.75;;;27.06;38.30
13765;BME280;6953;48.810;9.204;2023-08-01T15:51:03;97616.78;;;27.39;37.92
13765;BME280;6953;48.810;9.204;2023-08-01T15:53:29;97443.16;;;26.26;38.56
13765;BME280;6953;48.810;9.204;2023-08-01T15:56:02;97624.41;;;27.48;38.96
13765;BME280;6953;48.810;9.204;2023-08-01T15:58:28;97616.66;;;27.64;37.88
13765;BME280;6953;48.810;9.204;2023-08-01T16:00:59;97616.28;;;27.67;38.45
13765;BME280;6953;48.810;9.204;2023-08-01T16:03:25;97639.28;;;27.63;38.35
13765;BME280;6953;48.810;9.204;2023-08-01T16:05:52;97661.97;;;27.37;38.41
13765;BME280;6953;48.810;9.204;2023-08-01T16:08:18;97635.41;;;27.40;38.51
13765;BME280;6953;48.810;9.204;2023-08-01T16:10:44;97625.19;;;27.74;37.97
13765;BME280;6953;48.810;9.204;2023-08-01T16:13:11;97428.44;;;26.54;37.51
13765;BME280;6953;48.810;9.204;2023-08-01T16:15:37;97575.97;;;27.22;38.13
13765;BME280;6953;48.810;9.204;2023-08-01T16:18:03;97623.41;;;27.36;38.71
13765;BME280;6953;48.810;9.204;2023-08-01T16:20:29;97619.50;;;27.19;39.51
13765;BME280;6953;48.810;9.204;2023-08-01T16:22:55;97636.91;;;27.23;39.79
13765;BME280;6953;48.810;9.204;2023-08-01T16:25:20;97627.59;;;27.13;39.64
13765;BME280;6953;48.810;9.204;2023-08-01T16:27:45;97438.78;;;25.73;40.63
13765;BME280;6953;48.810;9.204;2023-08-01T16:30:11;97642.50;;;26.89;40.95
13765;BME280;6953;48.810;9.204;2023-08-01T16:32:36;97440.22;;;25.76;41.07
13765;BME280;6953;48.810;9.204;2023-08-01T16:35:02;97642.69;;;26.94;41.47
13765;BME280;6953;48.810;9.204;2023-08-01T16:37:28;97649.53;;;26.84;41.54
13765;BME280;6953;48.810;9.204;2023-08-01T16:39:54;97512.88;;;26.08;41.45
13765;BME280;6953;48.810;9.204;2023-08-01T16:42:19;97563.19;;;26.66;40.55
13765;BME280;6953;48.810;9.204;2023-08-01T16:44:44;97650.34;;;27.36;40.81
13765;BME280;6953;48.810;9.204;2023-08-01T16:47:10;97654.47;;;27.45;40.31
13765;BME280;6953;48.810;9.204;2023-08-01T16:49:35;97655.31;;;27.39;41.85
13765;BME280;6953;48.810;9.204;2023-08-01T16:52:00;97461.56;;;25.90;41.49
13765;BME280;6953;48.810;9.204;2023-08-01T16:54:25;97578.50;;;26.39;43.29
13765;BME280;6953;48.810;9.204;2023-08-01T16:56:51;97608.72;;;26.35;42.24
13765;BME280;6953;48.810;9.204;2023-08-01T16:59:16;97658.34;;;26.33;41.27
13765;BME280;6953;48.810;9.204;2023-08-01T17:01:42;97473.66;;;25.01;42.02
13765;BME280;6953;48.810;9.204;2023-08-01T17:04:07;97657.44;;;25.93;42.14
13765;BME280;6953;48.810;9.204;2023-08-01T17:06:33;97660.84;;;25.74;40.52
13765;BME280;6953;48.810;9.204;2023-08-01T17:08:58;97611.44;;;25.35;40.99
13765;BME280;6953;48.810;9.204;2023-08-01T17:11:24;97658.03;;;25.55;41.60
13765;BME280;6953;48.810;9.204;2023-08-01T17:13:49;97668.81;;;25.61;41.30
13765;BME280;6953;48.810;9.204;2023-08-01T17:16:15;97678.94;;;25.59;41.88
13765;BME280;6953;48.810;9.204;2023-08-01T17:18:40;97680.38;;;25.55;42.31
13765;BME280;6953;48.810;9.204;2023-08-01T17:21:08;97700.00;;;25.56;41.70
13765;BME280;6953;48.810;9.204;2023-08-01T17:23:34;97715.84;;;25.44;41.60
13765;BME280;6953;48.810;9.204;2023-08-01T17:25:59;97698.00;;;25.31;41.76
13765;BME280;6953;48.810;9.204;2023-08-01T17:28:24;97409.56;;;23.41;41.95
13765;BME280;6953;48.810;9.204;2023-08-01T17:30:50;97695.47;;;25.02;42.61
13765;BME280;6953;48.810;9.204;2023-08-01T17:33:16;97705.66;;;24.85;42.89
13765;BME280;6953;48.810;9.204;2023-08-01T17:35:42;97730.91;;;24.70;43.61
13765;BME280;6953;48.810;9.204;2023-08-01T17:38:07;97697.03;;;24.48;44.53
13765;BME280;6953;48.810;9.204;2023-08-01T17:40:33;97671.72;;;24.15;44.96
13765;BME280;6953;48.810;9.204;2023-08-01T17:42:58;97493.00;;;22.95;45.87
13765;BME280;6953;48.810;9.204;2023-08-01T17:45:24;97456.63;;;22.51;45.76
13765;BME280;6953;48.810;9.204;2023-08-01T17:47:49;97717.03;;;23.96;46.58
13765;BME280;6953;48.810;9.204;2023-08-01T17:50:14;97713.44;;;23.89;47.14
13765;BME280;6953;48.810;9.204;2023-08-01T17:52:40;97682.69;;;23.56;47.78
13765;BME280;6953;48.810;9.204;2023-08-01T17:55:05;97666.06;;;23.31;47.51
13765;BME280;6953;48.810;9.204;2023-08-01T17:57:31;97730.16;;;23.62;47.53
13765;BME280;6953;48.810;9.204;2023-08-01T17:59:56;97517.75;;;22.31;47.83
13765;BME280;6953;48.810;9.204;2023-08-01T18:02:21;97725.16;;;23.44;48.75
13765;BME280;6953;48.810;9.204;2023-08-01T18:04:47;97697.16;;;23.18;49.02
13765;BME280;6953;48.810;9.204;2023-08-01T18:07:12;97500.31;;;21.84;49.43
13765;BME280;6953;48.810;9.204;2023-08-01T18:09:37;97648.78;;;22.68;49.53
13765;BME280;6953;48.810;9.204;2023-08-01T18:12:03;97733.03;;;23.09;49.61
13765;BME280;6953;48.810;9.204;2023-08-01T18:14:33;97734.72;;;23.10;50.00
13765;BME280;6953;48.810;9.204;2023-08-01T18:16:58;97736.84;;;23.14;49.99